Dearing, Kansas
Current Conditions -  °F | °C
As of 1:25 AM on Sunday 23 Nov 2014 (Local Time) from KCFV Reporting Station
Overcast Overcast  
Wind Chill: 57°   Ceiling: 3900
Heat Index: 57°   Visibility: 10mi
Dew Point: 53°   Wind: 12mph
Humidity: 87%   Direction: 170°S
Pressure: 29.64"   Gusts: NA
Location:  37.06°N, 95.71°W
Report Text: KCFV 230725Z AUTO 17010KT 10SM SCT016 OVC039 14/12 A2964 RMK AO2 T01390117
Loading
Personal Weather Stations






























Interactive Weather Map New forecast layout! Learn more

10-Day Weather Forecast

Advertisements
Track Severe Weather on mobile